createdAt,value
2023-04-16T00:00:15.430Z,3.21
2023-04-16T00:03:17.697Z,3.07
2023-04-16T00:06:20.174Z,3.00
2023-04-16T00:09:22.082Z,2.98
2023-04-16T00:12:24.209Z,2.89
2023-04-16T00:15:26.470Z,2.81
2023-04-16T00:18:37.909Z,2.89
2023-04-16T00:21:39.947Z,2.86
2023-04-16T00:24:42.202Z,2.75
2023-04-16T00:27:44.097Z,2.73
2023-04-16T00:30:46.200Z,2.77
2023-04-16T00:33:48.151Z,2.67
2023-04-16T00:36:49.991Z,2.62
2023-04-16T00:39:51.867Z,2.56
2023-04-16T00:42:53.701Z,2.56
2023-04-16T00:45:57.001Z,2.54
2023-04-16T00:49:01.334Z,2.54
2023-04-16T00:52:03.454Z,2.61
2023-04-16T00:55:07.527Z,2.48
2023-04-16T00:58:09.766Z,2.41
2023-04-16T01:01:11.864Z,2.42
2023-04-16T01:04:14.449Z,2.50
2023-04-16T01:07:17.262Z,2.50
2023-04-16T01:10:19.200Z,2.24
2023-04-16T01:13:21.194Z,2.27
2023-04-16T01:16:23.202Z,2.18
2023-04-16T01:19:25.265Z,2.20
2023-04-16T01:22:30.904Z,2.23
2023-04-16T01:25:32.760Z,2.30
2023-04-16T01:28:35.410Z,2.29
2023-04-16T01:31:37.470Z,2.28
2023-04-16T01:34:39.254Z,2.26
2023-04-16T01:37:41.121Z,2.27
2023-04-16T01:40:43.354Z,2.28
2023-04-16T01:43:45.508Z,2.22
2023-04-16T01:46:47.558Z,2.23
2023-04-16T01:49:49.699Z,2.23
2023-04-16T01:52:51.525Z,2.20
2023-04-16T01:55:53.969Z,2.27
2023-04-16T01:58:56.192Z,2.40
2023-04-16T02:02:07.312Z,2.48
2023-04-16T02:05:09.275Z,2.59
2023-04-16T02:08:11.296Z,2.66
2023-04-16T02:11:13.362Z,2.59
2023-04-16T02:14:15.364Z,2.62
2023-04-16T02:17:17.803Z,2.71
2023-04-16T02:20:19.955Z,2.80
2023-04-16T02:23:21.749Z,2.90
2023-04-16T02:26:23.618Z,3.06
2023-04-16T02:29:25.543Z,3.18
2023-04-16T02:32:27.490Z,3.29
2023-04-16T02:35:29.530Z,3.29
2023-04-16T02:38:31.607Z,3.29
2023-04-16T02:41:33.952Z,3.26
2023-04-16T02:44:35.865Z,3.16
2023-04-16T02:47:37.864Z,3.15
2023-04-16T02:50:39.703Z,3.24
2023-04-16T02:53:45.551Z,3.22
2023-04-16T02:56:47.465Z,3.19
2023-04-16T02:59:49.356Z,3.15
2023-04-16T03:02:51.495Z,3.09
2023-04-16T03:05:53.512Z,3.01
2023-04-16T03:08:55.334Z,2.93
2023-04-16T03:11:57.262Z,2.86
2023-04-16T03:14:59.275Z,2.79
2023-04-16T03:18:01.314Z,2.86
2023-04-16T03:21:03.421Z,2.95
2023-04-16T03:24:05.709Z,2.82
2023-04-16T03:27:07.542Z,2.71
2023-04-16T03:30:13.542Z,2.66
2023-04-16T03:33:15.530Z,2.69
2023-04-16T03:36:17.396Z,2.60
2023-04-16T03:39:19.569Z,2.60
2023-04-16T03:42:21.369Z,2.51
2023-04-16T03:45:23.225Z,2.56
2023-04-16T03:48:25.044Z,2.58
2023-04-16T03:51:27.161Z,2.55
2023-04-16T03:54:29.101Z,2.61
2023-04-16T03:57:31.234Z,2.50
2023-04-16T04:00:33.153Z,2.50
2023-04-16T04:03:35.221Z,2.53
2023-04-16T04:06:37.691Z,2.47
2023-04-16T04:09:39.580Z,2.38
2023-04-16T04:12:41.599Z,2.37
2023-04-16T04:15:44.559Z,2.41
2023-04-16T04:18:46.647Z,2.51
2023-04-16T04:21:48.536Z,2.80
2023-04-16T04:24:50.402Z,3.39
2023-04-16T04:27:52.217Z,3.93
2023-04-16T04:30:54.063Z,4.41
2023-04-16T04:33:56.220Z,4.84
2023-04-16T04:36:59.035Z,5.20
2023-04-16T04:40:01.018Z,5.52
2023-04-16T04:43:02.915Z,5.83
2023-04-16T04:46:04.966Z,6.32
2023-04-16T04:49:07.048Z,6.41
2023-04-16T04:52:09.071Z,6.81
2023-04-16T04:55:11.344Z,6.94
2023-04-16T04:58:13.189Z,7.61
2023-04-16T05:01:15.658Z,7.87
2023-04-16T05:04:17.830Z,7.90
2023-04-16T05:07:19.726Z,8.32
2023-04-16T05:10:21.650Z,7.83
2023-04-16T05:13:23.615Z,7.12
2023-04-16T05:16:25.635Z,6.58
2023-04-16T05:19:27.925Z,6.50
2023-04-16T05:22:29.749Z,6.57
2023-04-16T05:25:31.852Z,6.54
2023-04-16T05:28:33.921Z,6.57
2023-04-16T05:31:36.460Z,6.74
2023-04-16T05:34:38.291Z,6.99
2023-04-16T05:37:40.202Z,7.23
2023-04-16T05:40:42.085Z,8.08
2023-04-16T05:43:43.940Z,8.88
2023-04-16T05:46:46.024Z,10.10
2023-04-16T05:49:47.906Z,10.13
2023-04-16T05:52:49.684Z,10.86
2023-04-16T05:55:51.584Z,11.13
2023-04-16T05:58:57.272Z,11.04
2023-04-16T06:01:59.799Z,11.38
2023-04-16T06:05:01.799Z,11.97
2023-04-16T06:08:03.843Z,11.94
2023-04-16T06:11:05.988Z,12.46
2023-04-16T06:14:07.906Z,12.81
2023-04-16T06:17:09.787Z,13.19
2023-04-16T06:20:12.655Z,14.52
2023-04-16T06:23:15.732Z,14.72
2023-04-16T06:26:18.358Z,15.95
2023-04-16T06:29:21.319Z,16.52
2023-04-16T06:32:25.064Z,16.21
2023-04-16T06:35:26.996Z,15.58
2023-04-16T06:38:28.882Z,15.56
2023-04-16T06:41:31.180Z,15.29
2023-04-16T06:44:33.166Z,15.60
2023-04-16T06:47:35.001Z,15.03
2023-04-16T06:50:37.661Z,15.40
2023-04-16T06:53:39.682Z,14.97
2023-04-16T06:56:41.627Z,15.04
2023-04-16T06:59:43.480Z,14.92
2023-04-16T07:02:45.515Z,14.49
2023-04-16T07:05:47.468Z,13.50
2023-04-16T07:08:49.379Z,13.97
2023-04-16T07:11:51.512Z,13.88
2023-04-16T07:14:53.546Z,14.09
2023-04-16T07:17:55.474Z,14.57
2023-04-16T07:20:57.567Z,14.95
2023-04-16T07:23:59.688Z,15.11
2023-04-16T07:27:01.687Z,14.26
2023-04-16T07:30:04.013Z,14.90
2023-04-16T07:33:06.206Z,15.52
2023-04-16T07:36:08.165Z,15.07
2023-04-16T07:39:11.407Z,16.52
2023-04-16T07:42:14.374Z,16.75
2023-04-16T07:45:17.080Z,17.81
2023-04-16T07:48:19.160Z,18.36
2023-04-16T07:51:21.349Z,18.24
2023-04-16T07:54:23.337Z,15.62
2023-04-16T07:57:25.411Z,17.16
2023-04-16T08:00:27.756Z,17.63
2023-04-16T08:03:30.935Z,17.48
2023-04-16T08:06:33.010Z,17.52
2023-04-16T08:09:36.308Z,17.52
2023-04-16T08:12:38.353Z,18.89
2023-04-16T08:15:40.265Z,18.83
2023-04-16T08:18:43.420Z,18.27
2023-04-16T08:21:45.802Z,18.25
2023-04-16T08:24:47.713Z,18.08
2023-04-16T08:27:49.652Z,17.90
2023-04-16T08:30:51.740Z,17.58
2023-04-16T08:33:53.591Z,18.29
2023-04-16T08:36:55.848Z,18.18
2023-04-16T08:39:57.750Z,17.91
2023-04-16T08:43:03.088Z,17.86
2023-04-16T08:46:09.174Z,17.55
2023-04-16T08:49:17.965Z,17.63
2023-04-16T08:52:24.217Z,17.53
2023-04-16T08:55:38.488Z,18.13
2023-04-16T08:58:41.192Z,16.28
2023-04-16T09:01:43.597Z,16.92
2023-04-16T09:04:46.971Z,15.54
2023-04-16T09:07:49.038Z,17.13
2023-04-16T09:10:51.359Z,17.43
2023-04-16T09:13:53.756Z,18.02
2023-04-16T09:16:56.209Z,17.91
2023-04-16T09:19:58.234Z,19.73
2023-04-16T09:23:00.768Z,21.14
2023-04-16T09:26:05.585Z,20.11
2023-04-16T09:29:09.883Z,20.23
2023-04-16T09:32:12.528Z,19.54
2023-04-16T09:35:15.687Z,20.07
2023-04-16T09:38:18.245Z,21.13
2023-04-16T09:41:24.380Z,19.55
2023-04-16T09:44:36.911Z,19.14
2023-04-16T09:47:44.917Z,17.68
2023-04-16T09:50:52.442Z,18.92
2023-04-16T09:53:57.267Z,18.12
2023-04-16T09:57:00.984Z,19.32
2023-04-16T10:00:06.238Z,18.72
2023-04-16T10:03:08.423Z,18.91
2023-04-16T10:06:22.006Z,17.05
2023-04-16T10:09:23.894Z,17.64
2023-04-16T10:12:27.210Z,17.47
2023-04-16T10:15:29.502Z,18.56
2023-04-16T10:18:31.561Z,18.34
2023-04-16T10:21:35.444Z,18.96
2023-04-16T10:24:37.382Z,19.16
2023-04-16T10:27:40.791Z,19.63
2023-04-16T10:30:52.686Z,21.19
2023-04-16T10:33:56.206Z,22.51
2023-04-16T10:36:58.110Z,23.52
2023-04-16T10:40:00.198Z,22.80
2023-04-16T10:43:02.295Z,22.48
2023-04-16T10:46:32.942Z,22.70
2023-04-16T10:49:35.913Z,24.51
2023-04-16T10:52:38.182Z,23.24
2023-04-16T10:55:40.076Z,23.65
2023-04-16T10:58:42.391Z,22.10
2023-04-16T11:01:47.049Z,23.10
2023-04-16T11:04:50.020Z,22.60
2023-04-16T11:07:52.076Z,20.01
2023-04-16T11:10:57.975Z,21.30
2023-04-16T11:14:00.364Z,20.78
2023-04-16T11:17:03.930Z,20.63
2023-04-16T11:20:19.488Z,19.56
2023-04-16T11:23:22.225Z,19.11
2023-04-16T11:26:28.800Z,19.16
2023-04-16T11:29:30.743Z,18.64
2023-04-16T11:32:33.982Z,18.67
2023-04-16T11:35:36.288Z,18.77
2023-04-16T11:38:41.570Z,18.17
2023-04-16T11:41:47.939Z,19.02
2023-04-16T11:44:57.021Z,19.50
2023-04-16T11:47:59.001Z,19.62
2023-04-16T11:51:01.079Z,18.80
2023-04-16T11:54:03.009Z,19.29
2023-04-16T11:57:05.076Z,18.38
2023-04-16T12:00:13.001Z,18.95
2023-04-16T12:03:15.279Z,19.57
2023-04-16T12:06:17.494Z,18.83
2023-04-16T12:09:31.824Z,19.60
2023-04-16T12:12:35.473Z,19.38
2023-04-16T12:15:51.746Z,19.32
2023-04-16T12:19:01.339Z,18.58
2023-04-16T12:22:03.298Z,18.13
2023-04-16T12:25:14.079Z,18.22
2023-04-16T12:28:31.060Z,17.72
2023-04-16T12:31:40.508Z,18.02
2023-04-16T12:34:54.080Z,17.53
2023-04-16T12:37:56.011Z,16.97
2023-04-16T12:40:59.005Z,16.78
2023-04-16T12:44:18.993Z,16.67
2023-04-16T12:47:20.930Z,16.68
2023-04-16T12:50:22.881Z,16.89
2023-04-16T12:53:24.888Z,16.27
2023-04-16T12:56:27.469Z,16.50
2023-04-16T12:59:29.477Z,16.96
2023-04-16T13:02:32.503Z,17.32
2023-04-16T13:05:34.651Z,17.23
2023-04-16T13:08:46.971Z,17.18
2023-04-16T13:11:49.165Z,16.95
2023-04-16T13:15:07.625Z,16.82
2023-04-16T13:18:09.837Z,16.87
2023-04-16T13:21:12.161Z,17.06
2023-04-16T13:24:14.417Z,16.52
2023-04-16T13:27:16.902Z,15.79
2023-04-16T13:30:18.850Z,15.79
2023-04-16T13:33:21.440Z,16.09
2023-04-16T13:36:23.888Z,16.32
2023-04-16T13:39:27.544Z,16.11
2023-04-16T13:42:29.514Z,16.17
2023-04-16T13:45:31.828Z,16.24
2023-04-16T13:48:33.697Z,16.37
2023-04-16T13:51:38.549Z,16.63
2023-04-16T13:54:40.944Z,16.70
2023-04-16T13:57:47.792Z,16.58
2023-04-16T14:00:50.586Z,16.36
2023-04-16T14:03:52.799Z,16.12
2023-04-16T14:06:55.394Z,16.04
2023-04-16T14:09:57.283Z,15.73
2023-04-16T14:12:59.517Z,15.41
2023-04-16T14:16:02.732Z,15.74
2023-04-16T14:19:04.625Z,16.04
2023-04-16T14:22:08.753Z,15.91
2023-04-16T14:25:11.222Z,15.82
2023-04-16T14:28:15.627Z,15.39
2023-04-16T14:31:18.106Z,15.42
2023-04-16T14:34:20.011Z,15.60
2023-04-16T14:37:22.163Z,15.45
2023-04-16T14:40:23.998Z,15.34
2023-04-16T14:43:26.239Z,15.32
2023-04-16T14:46:28.447Z,15.41
2023-04-16T14:49:30.579Z,15.31
2023-04-16T14:52:32.759Z,15.12
2023-04-16T14:55:34.750Z,15.46
2023-04-16T14:58:39.153Z,15.37
2023-04-16T15:01:42.084Z,15.18
2023-04-16T15:04:44.285Z,14.94
2023-04-16T15:07:46.247Z,14.80
2023-04-16T15:10:48.191Z,14.96
2023-04-16T15:13:50.370Z,14.90
2023-04-16T15:16:54.901Z,14.85
2023-04-16T15:19:57.128Z,14.89
2023-04-16T15:22:59.362Z,14.87
2023-04-16T15:26:03.656Z,14.89
2023-04-16T15:29:06.339Z,14.90
2023-04-16T15:32:08.764Z,14.81
2023-04-16T15:35:11.444Z,14.96
2023-04-16T15:38:13.755Z,14.90
2023-04-16T15:41:15.912Z,14.84
2023-04-16T15:44:18.084Z,14.68
2023-04-16T15:47:21.107Z,14.74
2023-04-16T15:50:23.642Z,14.48
2023-04-16T15:53:26.527Z,14.40
2023-04-16T15:56:28.660Z,14.26
2023-04-16T15:59:31.212Z,14.29
2023-04-16T16:02:34.211Z,14.33
2023-04-16T16:05:36.769Z,14.25
2023-04-16T16:08:39.480Z,14.10
2023-04-16T16:11:42.413Z,14.09
2023-04-16T16:14:44.716Z,14.14
2023-04-16T16:17:47.357Z,14.08
2023-04-16T16:20:49.979Z,13.98
2023-04-16T16:23:52.158Z,13.91
2023-04-16T16:26:54.217Z,13.86
2023-04-16T16:30:01.849Z,13.70
2023-04-16T16:33:05.792Z,13.61
2023-04-16T16:36:12.180Z,13.63
2023-04-16T16:39:15.209Z,13.50
2023-04-16T16:42:21.097Z,13.50
2023-04-16T16:45:26.451Z,13.47
2023-04-16T16:48:31.356Z,13.45
2023-04-16T16:51:33.982Z,13.37
2023-04-16T16:54:36.136Z,13.28
2023-04-16T16:57:43.096Z,13.16
2023-04-16T17:00:57.725Z,13.16
2023-04-16T17:04:00.598Z,13.03
2023-04-16T17:07:03.110Z,13.07
2023-04-16T17:10:07.341Z,12.98
2023-04-16T17:13:09.865Z,12.90
2023-04-16T17:16:13.240Z,12.89
2023-04-16T17:19:16.009Z,12.81
2023-04-16T17:22:18.393Z,12.80
2023-04-16T17:25:20.747Z,12.74
2023-04-16T17:28:23.324Z,12.72
2023-04-16T17:31:29.012Z,12.71
2023-04-16T17:34:31.703Z,12.66
2023-04-16T17:37:34.615Z,12.68
2023-04-16T17:40:40.300Z,12.66
2023-04-16T17:43:43.356Z,12.70
2023-04-16T17:46:48.581Z,12.63
2023-04-16T17:49:57.710Z,12.62
2023-04-16T17:53:03.658Z,12.57
2023-04-16T17:56:06.884Z,12.60
2023-04-16T17:59:09.248Z,12.55
2023-04-16T18:02:11.513Z,12.57
2023-04-16T18:05:14.796Z,12.53
2023-04-16T18:08:17.122Z,12.56
2023-04-16T18:11:19.436Z,12.56
2023-04-16T18:14:25.191Z,12.56
2023-04-16T18:17:27.426Z,12.55
2023-04-16T18:20:29.754Z,12.48
2023-04-16T18:23:31.900Z,12.50
2023-04-16T18:26:36.201Z,12.52
2023-04-16T18:29:39.876Z,12.50
2023-04-16T18:32:56.115Z,12.50
2023-04-16T18:36:04.696Z,12.41
2023-04-16T18:39:08.260Z,12.34
2023-04-16T18:42:10.706Z,12.31
2023-04-16T18:45:20.983Z,12.36
2023-04-16T18:48:23.799Z,12.36
2023-04-16T18:51:27.358Z,12.30
2023-04-16T18:54:29.561Z,12.37
2023-04-16T18:57:31.767Z,12.38
2023-04-16T19:00:34.006Z,12.27
2023-04-16T19:03:37.112Z,12.27
2023-04-16T19:06:40.295Z,12.28
2023-04-16T19:09:42.555Z,12.27
2023-04-16T19:12:44.775Z,12.22
2023-04-16T19:15:47.878Z,12.23
2023-04-16T19:18:50.896Z,12.18
2023-04-16T19:21:53.364Z,12.09
2023-04-16T19:24:57.428Z,12.02
2023-04-16T19:28:01.243Z,12.04
2023-04-16T19:31:03.344Z,11.96
2023-04-16T19:34:05.690Z,11.91
2023-04-16T19:37:09.691Z,11.83
2023-04-16T19:40:12.111Z,11.83
2023-04-16T19:43:17.441Z,11.74
2023-04-16T19:46:19.429Z,11.70
2023-04-16T19:49:21.683Z,11.65
2023-04-16T19:52:23.566Z,11.64
2023-04-16T19:55:26.520Z,11.64
2023-04-16T19:58:28.536Z,11.55
2023-04-16T20:01:38.269Z,11.64
2023-04-16T20:04:41.977Z,11.51
2023-04-16T20:07:44.271Z,11.53
2023-04-16T20:10:46.574Z,11.41
2023-04-16T20:13:48.835Z,11.49
2023-04-16T20:16:50.759Z,11.47
2023-04-16T20:19:53.212Z,11.46
2023-04-16T20:22:55.703Z,11.41
2023-04-16T20:25:57.612Z,11.37
2023-04-16T20:29:02.682Z,11.32
2023-04-16T20:32:05.925Z,11.27
2023-04-16T20:35:13.646Z,11.26
2023-04-16T20:38:15.525Z,11.25
2023-04-16T20:41:23.589Z,11.22
2023-04-16T20:44:48.599Z,11.19
2023-04-16T20:47:51.151Z,11.23
2023-04-16T20:50:58.535Z,11.20
2023-04-16T20:54:01.100Z,11.13
2023-04-16T20:57:04.828Z,11.10
2023-04-16T21:00:10.324Z,11.04
2023-04-16T21:03:12.245Z,11.08
2023-04-16T21:06:17.864Z,10.99
2023-04-16T21:09:21.350Z,11.02
2023-04-16T21:12:24.519Z,11.00
2023-04-16T21:15:26.735Z,10.93
2023-04-16T21:18:29.473Z,10.81
2023-04-16T21:21:32.535Z,10.84
2023-04-16T21:24:34.660Z,10.70
2023-04-16T21:27:36.477Z,10.75
2023-04-16T21:30:38.864Z,10.81
2023-04-16T21:33:41.128Z,10.75
2023-04-16T21:36:42.928Z,10.65
2023-04-16T21:39:45.275Z,10.62
2023-04-16T21:42:47.221Z,10.60
2023-04-16T21:45:52.097Z,10.63
2023-04-16T21:48:54.081Z,10.60
2023-04-16T21:51:59.249Z,10.66
2023-04-16T21:55:01.175Z,10.64
2023-04-16T21:58:03.930Z,10.59
2023-04-16T22:01:07.713Z,10.61
2023-04-16T22:04:12.332Z,10.59
2023-04-16T22:07:22.132Z,10.51
2023-04-16T22:10:27.344Z,10.49
2023-04-16T22:13:42.460Z,10.50
2023-04-16T22:16:46.288Z,10.62
2023-04-16T22:19:49.427Z,10.57
2023-04-16T22:22:57.903Z,10.67
2023-04-16T22:26:16.371Z,10.44
2023-04-16T22:29:22.896Z,10.46
2023-04-16T22:32:27.900Z,10.62
2023-04-16T22:35:43.877Z,10.69
2023-04-16T22:38:46.831Z,10.65
2023-04-16T22:42:05.548Z,10.69
2023-04-16T22:45:08.530Z,10.60
2023-04-16T22:48:13.059Z,10.56
2023-04-16T22:51:17.634Z,10.60
2023-04-16T22:54:21.662Z,10.56
2023-04-16T22:57:26.706Z,10.52
2023-04-16T23:00:28.769Z,10.59
2023-04-16T23:03:31.557Z,10.58
2023-04-16T23:06:33.719Z,10.62
2023-04-16T23:09:36.397Z,10.57
2023-04-16T23:12:40.668Z,10.48
2023-04-16T23:16:21.252Z,10.35
2023-04-16T23:19:32.846Z,10.36
2023-04-16T23:22:35.078Z,10.36
2023-04-16T23:25:37.229Z,10.20
2023-04-16T23:28:46.013Z,10.33
2023-04-16T23:31:50.279Z,10.23
2023-04-16T23:34:52.625Z,10.29
2023-04-16T23:37:54.860Z,10.15
2023-04-16T23:40:56.918Z,10.16
2023-04-16T23:43:59.118Z,10.26
2023-04-16T23:47:01.268Z,10.17
2023-04-16T23:50:03.797Z,10.22
2023-04-16T23:53:06.223Z,10.12
2023-04-16T23:56:11.319Z,10.16
2023-04-16T23:59:13.871Z,10.06
